sensor_id;sensor_type;location;lat;lon;timestamp;temperature;humidity
27559;DHT22;15002;52.028;5.670;2022-08-21T00:00:19;19.70;99.90
27559;DHT22;15002;52.028;5.670;2022-08-21T00:02:52;19.70;99.90
27559;DHT22;15002;52.028;5.670;2022-08-21T00:05:18;19.50;99.90
27559;DHT22;15002;52.028;5.670;2022-08-21T00:07:44;19.50;99.90
27559;DHT22;15002;52.028;5.670;2022-08-21T00:10:11;19.60;99.90
27559;DHT22;15002;52.028;5.670;2022-08-21T00:12:37;19.60;99.90
27559;DHT22;15002;52.028;5.670;2022-08-21T00:15:06;19.60;99.90
27559;DHT22;15002;52.028;5.670;2022-08-21T00:17:31;19.70;99.90
27559;DHT22;15002;52.028;5.670;2022-08-21T00:19:57;19.70;99.90
27559;DHT22;15002;52.028;5.670;2022-08-21T00:22:23;19.60;99.90
27559;DHT22;15002;52.028;5.670;2022-08-21T00:24:48;19.60;99.90
27559;DHT22;15002;52.028;5.670;2022-08-21T00:27:15;19.60;99.90
27559;DHT22;15002;52.028;5.670;2022-08-21T00:29:40;19.50;99.90
27559;DHT22;15002;52.028;5.670;2022-08-21T00:32:06;19.40;99.90
27559;DHT22;15002;52.028;5.670;2022-08-21T00:34:32;19.40;99.90
27559;DHT22;15002;52.028;5.670;2022-08-21T00:36:57;19.50;99.90
27559;DHT22;15002;52.028;5.670;2022-08-21T00:39:23;19.40;99.90
27559;DHT22;15002;52.028;5.670;2022-08-21T00:41:48;19.40;99.90
27559;DHT22;15002;52.028;5.670;2022-08-21T00:44:15;19.40;99.90
27559;DHT22;15002;52.028;5.670;2022-08-21T00:46:42;19.40;99.90
27559;DHT22;15002;52.028;5.670;2022-08-21T00:49:10;19.40;99.90
27559;DHT22;15002;52.028;5.670;2022-08-21T00:51:49;19.40;99.90
27559;DHT22;15002;52.028;5.670;2022-08-21T00:54:17;19.40;99.90
27559;DHT22;15002;52.028;5.670;2022-08-21T00:56:44;19.40;99.90
27559;DHT22;15002;52.028;5.670;2022-08-21T00:59:10;19.40;99.90
27559;DHT22;15002;52.028;5.670;2022-08-21T01:01:35;19.40;99.90
27559;DHT22;15002;52.028;5.670;2022-08-21T01:04:02;19.30;99.90
27559;DHT22;15002;52.028;5.670;2022-08-21T01:06:27;19.30;99.90
27559;DHT22;15002;52.028;5.670;2022-08-21T01:08:53;19.30;99.90
27559;DHT22;15002;52.028;5.670;2022-08-21T01:11:19;19.20;99.90
27559;DHT22;15002;52.028;5.670;2022-08-21T01:13:45;19.20;99.90
27559;DHT22;15002;52.028;5.670;2022-08-21T01:16:15;19.20;99.90
27559;DHT22;15002;52.028;5.670;2022-08-21T01:18:43;19.20;99.90
27559;DHT22;15002;52.028;5.670;2022-08-21T01:21:13;19.10;99.90
27559;DHT22;15002;52.028;5.670;2022-08-21T01:23:42;19.10;99.90
27559;DHT22;15002;52.028;5.670;2022-08-21T01:26:09;19.20;99.90
27559;DHT22;15002;52.028;5.670;2022-08-21T01:28:40;19.00;99.90
27559;DHT22;15002;52.028;5.670;2022-08-21T01:31:08;19.00;99.90
27559;DHT22;15002;52.028;5.670;2022-08-21T01:33:35;19.00;99.90
27559;DHT22;15002;52.028;5.670;2022-08-21T01:36:01;19.00;99.90
27559;DHT22;15002;52.028;5.670;2022-08-21T01:38:27;19.00;99.90
27559;DHT22;15002;52.028;5.670;2022-08-21T01:40:52;19.10;99.90
27559;DHT22;15002;52.028;5.670;2022-08-21T01:43:18;19.00;99.90
27559;DHT22;15002;52.028;5.670;2022-08-21T01:45:44;19.10;99.90
27559;DHT22;15002;52.028;5.670;2022-08-21T01:48:09;19.10;99.90
27559;DHT22;15002;52.028;5.670;2022-08-21T01:50:35;19.10;99.90
27559;DHT22;15002;52.028;5.670;2022-08-21T01:53:01;19.10;99.90
27559;DHT22;15002;52.028;5.670;2022-08-21T01:55:26;19.00;99.90
27559;DHT22;15002;52.028;5.670;2022-08-21T01:57:52;19.00;99.90
27559;DHT22;15002;52.028;5.670;2022-08-21T02:00:21;18.80;99.90
27559;DHT22;15002;52.028;5.670;2022-08-21T02:02:48;18.90;99.90
27559;DHT22;15002;52.028;5.670;2022-08-21T02:05:14;18.90;99.90
27559;DHT22;15002;52.028;5.670;2022-08-21T02:07:48;18.90;99.90
27559;DHT22;15002;52.028;5.670;2022-08-21T02:10:19;18.90;99.90
27559;DHT22;15002;52.028;5.670;2022-08-21T02:12:45;18.90;99.90
27559;DHT22;15002;52.028;5.670;2022-08-21T02:15:11;18.90;99.90
27559;DHT22;15002;52.028;5.670;2022-08-21T02:17:42;18.90;99.90
27559;DHT22;15002;52.028;5.670;2022-08-21T02:20:09;18.80;99.90
27559;DHT22;15002;52.028;5.670;2022-08-21T02:22:35;18.80;99.90
27559;DHT22;15002;52.028;5.670;2022-08-21T02:25:01;18.70;99.90
27559;DHT22;15002;52.028;5.670;2022-08-21T02:27:26;18.70;99.90
27559;DHT22;15002;52.028;5.670;2022-08-21T02:29:53;18.80;99.90
27559;DHT22;15002;52.028;5.670;2022-08-21T02:32:19;18.90;99.90
27559;DHT22;15002;52.028;5.670;2022-08-21T02:34:46;18.80;99.90
27559;DHT22;15002;52.028;5.670;2022-08-21T02:37:12;18.70;99.90
27559;DHT22;15002;52.028;5.670;2022-08-21T02:39:37;18.70;99.90
27559;DHT22;15002;52.028;5.670;2022-08-21T02:42:03;18.70;99.90
27559;DHT22;15002;52.028;5.670;2022-08-21T02:44:29;18.70;99.90
27559;DHT22;15002;52.028;5.670;2022-08-21T02:46:55;18.60;99.90
27559;DHT22;15002;52.028;5.670;2022-08-21T02:49:20;18.70;99.90
27559;DHT22;15002;52.028;5.670;2022-08-21T02:51:46;18.60;99.90
27559;DHT22;15002;52.028;5.670;2022-08-21T02:54:12;18.50;99.90
27559;DHT22;15002;52.028;5.670;2022-08-21T02:56:37;18.40;99.90
27559;DHT22;15002;52.028;5.670;2022-08-21T02:59:03;18.50;99.90
27559;DHT22;15002;52.028;5.670;2022-08-21T03:01:29;18.50;99.90
27559;DHT22;15002;52.028;5.670;2022-08-21T03:03:54;18.60;99.90
27559;DHT22;15002;52.028;5.670;2022-08-21T03:06:21;18.70;99.90
27559;DHT22;15002;52.028;5.670;2022-08-21T03:08:48;18.90;99.90
27559;DHT22;15002;52.028;5.670;2022-08-21T03:11:15;19.00;99.90
27559;DHT22;15002;52.028;5.670;2022-08-21T03:13:41;19.00;99.90
27559;DHT22;15002;52.028;5.670;2022-08-21T03:16:07;18.90;99.90
27559;DHT22;15002;52.028;5.670;2022-08-21T03:18:33;18.90;99.90
27559;DHT22;15002;52.028;5.670;2022-08-21T03:20:59;18.90;99.90
27559;DHT22;15002;52.028;5.670;2022-08-21T03:23:25;19.00;99.90
27559;DHT22;15002;52.028;5.670;2022-08-21T03:25:50;19.00;99.90
27559;DHT22;15002;52.028;5.670;2022-08-21T03:28:19;18.90;99.90
27559;DHT22;15002;52.028;5.670;2022-08-21T03:30:48;18.90;99.90
27559;DHT22;15002;52.028;5.670;2022-08-21T03:33:14;18.90;99.90
27559;DHT22;15002;52.028;5.670;2022-08-21T03:35:42;18.90;99.90
27559;DHT22;15002;52.028;5.670;2022-08-21T03:38:08;18.90;99.90
27559;DHT22;15002;52.028;5.670;2022-08-21T03:40:34;18.90;99.90
27559;DHT22;15002;52.028;5.670;2022-08-21T03:42:59;18.80;99.90
27559;DHT22;15002;52.028;5.670;2022-08-21T03:45:25;18.70;99.90
27559;DHT22;15002;52.028;5.670;2022-08-21T03:47:55;18.70;99.90
27559;DHT22;15002;52.028;5.670;2022-08-21T03:50:22;18.70;99.90
27559;DHT22;15002;52.028;5.670;2022-08-21T03:52:48;18.70;99.90
27559;DHT22;15002;52.028;5.670;2022-08-21T03:55:14;18.70;99.90
27559;DHT22;15002;52.028;5.670;2022-08-21T03:57:40;18.60;99.90
27559;DHT22;15002;52.028;5.670;2022-08-21T04:00:06;18.60;99.90
27559;DHT22;15002;52.028;5.670;2022-08-21T04:02:34;18.50;99.90
27559;DHT22;15002;52.028;5.670;2022-08-21T04:04:59;18.50;99.90
27559;DHT22;15002;52.028;5.670;2022-08-21T04:07:25;18.40;99.90
27559;DHT22;15002;52.028;5.670;2022-08-21T04:09:51;18.40;99.90
27559;DHT22;15002;52.028;5.670;2022-08-21T04:12:16;18.40;99.90
27559;DHT22;15002;52.028;5.670;2022-08-21T04:14:42;18.40;99.90
27559;DHT22;15002;52.028;5.670;2022-08-21T04:17:07;18.40;99.90
27559;DHT22;15002;52.028;5.670;2022-08-21T04:19:33;18.40;99.90
27559;DHT22;15002;52.028;5.670;2022-08-21T04:21:59;18.30;99.90
27559;DHT22;15002;52.028;5.670;2022-08-21T04:24:24;18.30;99.90
27559;DHT22;15002;52.028;5.670;2022-08-21T04:26:50;18.30;99.90
27559;DHT22;15002;52.028;5.670;2022-08-21T04:29:15;18.40;99.90
27559;DHT22;15002;52.028;5.670;2022-08-21T04:31:41;18.40;99.90
27559;DHT22;15002;52.028;5.670;2022-08-21T04:34:09;18.30;99.90
27559;DHT22;15002;52.028;5.670;2022-08-21T04:36:34;18.20;99.90
27559;DHT22;15002;52.028;5.670;2022-08-21T04:39:00;18.10;99.90
27559;DHT22;15002;52.028;5.670;2022-08-21T04:41:27;18.10;99.90
27559;DHT22;15002;52.028;5.670;2022-08-21T04:43:54;18.10;99.90
27559;DHT22;15002;52.028;5.670;2022-08-21T04:46:21;18.10;99.90
27559;DHT22;15002;52.028;5.670;2022-08-21T04:48:47;18.20;99.90
27559;DHT22;15002;52.028;5.670;2022-08-21T04:51:22;18.20;99.90
27559;DHT22;15002;52.028;5.670;2022-08-21T04:54:14;18.20;99.90
27559;DHT22;15002;52.028;5.670;2022-08-21T04:56:49;18.20;99.90
27559;DHT22;15002;52.028;5.670;2022-08-21T04:59:23;18.30;99.90
27559;DHT22;15002;52.028;5.670;2022-08-21T05:01:50;18.10;99.90
27559;DHT22;15002;52.028;5.670;2022-08-21T05:04:18;18.10;99.90
27559;DHT22;15002;52.028;5.670;2022-08-21T05:06:47;18.20;99.90
27559;DHT22;15002;52.028;5.670;2022-08-21T05:09:15;18.30;99.90
27559;DHT22;15002;52.028;5.670;2022-08-21T05:11:42;18.30;99.90
27559;DHT22;15002;52.028;5.670;2022-08-21T05:14:09;18.20;99.90
27559;DHT22;15002;52.028;5.670;2022-08-21T05:16:35;18.40;99.90
27559;DHT22;15002;52.028;5.670;2022-08-21T05:19:00;18.50;99.90
27559;DHT22;15002;52.028;5.670;2022-08-21T05:21:26;18.50;99.90
27559;DHT22;15002;52.028;5.670;2022-08-21T05:23:52;18.40;99.90
27559;DHT22;15002;52.028;5.670;2022-08-21T05:26:17;18.50;99.90
27559;DHT22;15002;52.028;5.670;2022-08-21T05:28:43;18.60;99.90
27559;DHT22;15002;52.028;5.670;2022-08-21T05:31:09;18.60;99.90
27559;DHT22;15002;52.028;5.670;2022-08-21T05:33:34;18.60;99.90
27559;DHT22;15002;52.028;5.670;2022-08-21T05:36:00;18.70;99.90
27559;DHT22;15002;52.028;5.670;2022-08-21T05:38:26;18.70;99.90
27559;DHT22;15002;52.028;5.670;2022-08-21T05:40:53;18.80;99.90
27559;DHT22;15002;52.028;5.670;2022-08-21T05:43:19;18.90;99.90
27559;DHT22;15002;52.028;5.670;2022-08-21T05:45:45;19.00;99.90
27559;DHT22;15002;52.028;5.670;2022-08-21T05:48:14;19.10;99.90
27559;DHT22;15002;52.028;5.670;2022-08-21T05:50:41;19.20;99.90
27559;DHT22;15002;52.028;5.670;2022-08-21T05:53:08;19.20;99.90
27559;DHT22;15002;52.028;5.670;2022-08-21T05:55:36;19.30;99.90
27559;DHT22;15002;52.028;5.670;2022-08-21T05:58:03;19.30;99.90
27559;DHT22;15002;52.028;5.670;2022-08-21T06:00:28;19.30;99.90
27559;DHT22;15002;52.028;5.670;2022-08-21T06:02:54;19.40;99.90
27559;DHT22;15002;52.028;5.670;2022-08-21T06:05:20;19.50;99.90
27559;DHT22;15002;52.028;5.670;2022-08-21T06:07:45;19.80;99.90
27559;DHT22;15002;52.028;5.670;2022-08-21T06:10:11;19.90;99.90
27559;DHT22;15002;52.028;5.670;2022-08-21T06:12:37;20.00;99.90
27559;DHT22;15002;52.028;5.670;2022-08-21T06:15:03;20.00;99.90
27559;DHT22;15002;52.028;5.670;2022-08-21T06:17:29;20.10;99.90
27559;DHT22;15002;52.028;5.670;2022-08-21T06:19:54;20.10;99.90
27559;DHT22;15002;52.028;5.670;2022-08-21T06:22:21;20.10;99.90
27559;DHT22;15002;52.028;5.670;2022-08-21T06:24:47;20.10;99.90
27559;DHT22;15002;52.028;5.670;2022-08-21T06:27:13;20.10;99.90
27559;DHT22;15002;52.028;5.670;2022-08-21T06:29:39;20.10;99.90
27559;DHT22;15002;52.028;5.670;2022-08-21T06:32:05;20.30;99.90
27559;DHT22;15002;52.028;5.670;2022-08-21T06:34:36;20.60;99.90
27559;DHT22;15002;52.028;5.670;2022-08-21T06:37:03;21.00;99.90
27559;DHT22;15002;52.028;5.670;2022-08-21T06:39:29;21.60;99.90
27559;DHT22;15002;52.028;5.670;2022-08-21T06:41:55;22.20;98.40
27559;DHT22;15002;52.028;5.670;2022-08-21T06:44:20;22.70;97.30
27559;DHT22;15002;52.028;5.670;2022-08-21T06:46:46;22.90;97.20
27559;DHT22;15002;52.028;5.670;2022-08-21T06:49:12;23.10;96.40
27559;DHT22;15002;52.028;5.670;2022-08-21T06:51:38;23.20;96.20
27559;DHT22;15002;52.028;5.670;2022-08-21T06:54:04;23.50;95.40
27559;DHT22;15002;52.028;5.670;2022-08-21T06:56:30;23.70;96.00
27559;DHT22;15002;52.028;5.670;2022-08-21T06:58:56;24.10;94.70
27559;DHT22;15002;52.028;5.670;2022-08-21T07:01:24;24.70;94.30
27559;DHT22;15002;52.028;5.670;2022-08-21T07:03:50;25.00;92.70
27559;DHT22;15002;52.028;5.670;2022-08-21T07:06:16;24.80;93.40
27559;DHT22;15002;52.028;5.670;2022-08-21T07:08:42;25.00;92.90
27559;DHT22;15002;52.028;5.670;2022-08-21T07:11:17;25.40;92.20
27559;DHT22;15002;52.028;5.670;2022-08-21T07:13:43;25.30;92.20
27559;DHT22;15002;52.028;5.670;2022-08-21T07:16:08;25.70;92.40
27559;DHT22;15002;52.028;5.670;2022-08-21T07:18:34;25.80;91.40
27559;DHT22;15002;52.028;5.670;2022-08-21T07:21:04;26.10;91.20
27559;DHT22;15002;52.028;5.670;2022-08-21T07:23:37;26.10;90.90
27559;DHT22;15002;52.028;5.670;2022-08-21T07:26:06;26.30;90.80
27559;DHT22;15002;52.028;5.670;2022-08-21T07:28:32;26.10;90.90
27559;DHT22;15002;52.028;5.670;2022-08-21T07:31:00;26.20;90.80
27559;DHT22;15002;52.028;5.670;2022-08-21T07:33:28;26.70;91.30
27559;DHT22;15002;52.028;5.670;2022-08-21T07:35:54;27.10;89.30
27559;DHT22;15002;52.028;5.670;2022-08-21T07:38:20;27.40;89.60
27559;DHT22;15002;52.028;5.670;2022-08-21T07:40:47;27.30;89.10
27559;DHT22;15002;52.028;5.670;2022-08-21T07:43:13;27.30;89.20
27559;DHT22;15002;52.028;5.670;2022-08-21T07:45:42;27.40;89.80
27559;DHT22;15002;52.028;5.670;2022-08-21T07:48:08;27.70;89.30
27559;DHT22;15002;52.028;5.670;2022-08-21T07:50:33;27.80;88.10
27559;DHT22;15002;52.028;5.670;2022-08-21T07:52:59;28.00;87.20
27559;DHT22;15002;52.028;5.670;2022-08-21T07:55:25;28.00;87.60
27559;DHT22;15002;52.028;5.670;2022-08-21T07:57:50;27.80;88.40
27559;DHT22;15002;52.028;5.670;2022-08-21T08:00:20;27.60;88.50
27559;DHT22;15002;52.028;5.670;2022-08-21T08:02:49;27.60;89.60
27559;DHT22;15002;52.028;5.670;2022-08-21T08:05:16;27.60;88.30
27559;DHT22;15002;52.028;5.670;2022-08-21T08:07:43;27.30;88.60
27559;DHT22;15002;52.028;5.670;2022-08-21T08:10:09;27.10;90.00
27559;DHT22;15002;52.028;5.670;2022-08-21T08:12:39;26.90;90.10
27559;DHT22;15002;52.028;5.670;2022-08-21T08:15:08;27.30;90.10
27559;DHT22;15002;52.028;5.670;2022-08-21T08:17:34;27.70;89.40
27559;DHT22;15002;52.028;5.670;2022-08-21T08:20:00;27.50;88.20
27559;DHT22;15002;52.028;5.670;2022-08-21T08:22:26;27.70;88.90
27559;DHT22;15002;52.028;5.670;2022-08-21T08:24:53;27.80;88.00
27559;DHT22;15002;52.028;5.670;2022-08-21T08:27:19;27.30;89.00
27559;DHT22;15002;52.028;5.670;2022-08-21T08:29:46;27.50;89.30
27559;DHT22;15002;52.028;5.670;2022-08-21T08:32:12;27.50;88.50
27559;DHT22;15002;52.028;5.670;2022-08-21T08:34:39;27.70;88.50
27559;DHT22;15002;52.028;5.670;2022-08-21T08:37:06;27.70;89.00
27559;DHT22;15002;52.028;5.670;2022-08-21T08:39:33;27.80;87.70
27559;DHT22;15002;52.028;5.670;2022-08-21T08:42:05;27.80;87.70
27559;DHT22;15002;52.028;5.670;2022-08-21T08:44:32;28.10;86.70
27559;DHT22;15002;52.028;5.670;2022-08-21T08:46:59;27.80;87.50
27559;DHT22;15002;52.028;5.670;2022-08-21T08:49:47;28.00;87.70
27559;DHT22;15002;52.028;5.670;2022-08-21T08:52:28;28.00;86.20
27559;DHT22;15002;52.028;5.670;2022-08-21T08:55:12;28.10;87.10
27559;DHT22;15002;52.028;5.670;2022-08-21T08:57:44;28.00;87.50
27559;DHT22;15002;52.028;5.670;2022-08-21T09:00:12;28.10;86.30
27559;DHT22;15002;52.028;5.670;2022-08-21T09:02:41;28.00;86.80
27559;DHT22;15002;52.028;5.670;2022-08-21T09:05:09;28.10;86.10
27559;DHT22;15002;52.028;5.670;2022-08-21T09:07:51;28.10;85.40
27559;DHT22;15002;52.028;5.670;2022-08-21T09:10:35;27.90;85.70
27559;DHT22;15002;52.028;5.670;2022-08-21T09:13:14;27.80;86.10
27559;DHT22;15002;52.028;5.670;2022-08-21T09:19:03;27.90;86.40
27559;DHT22;15002;52.028;5.670;2022-08-21T09:27:12;28.30;83.30
27559;DHT22;15002;52.028;5.670;2022-08-21T09:29:42;28.20;84.10
27559;DHT22;15002;52.028;5.670;2022-08-21T09:32:24;28.10;85.40
27559;DHT22;15002;52.028;5.670;2022-08-21T09:35:12;28.30;84.60
27559;DHT22;15002;52.028;5.670;2022-08-21T09:45:39;28.60;82.70
27559;DHT22;15002;52.028;5.670;2022-08-21T09:48:14;28.40;82.80
27559;DHT22;15002;52.028;5.670;2022-08-21T09:50:40;28.70;83.00
27559;DHT22;15002;52.028;5.670;2022-08-21T09:53:20;28.50;82.50
27559;DHT22;15002;52.028;5.670;2022-08-21T09:55:56;28.50;82.50
27559;DHT22;15002;52.028;5.670;2022-08-21T09:58:43;28.30;81.40
27559;DHT22;15002;52.028;5.670;2022-08-21T10:01:16;28.40;82.40
27559;DHT22;15002;52.028;5.670;2022-08-21T10:03:43;28.30;81.10
27559;DHT22;15002;52.028;5.670;2022-08-21T10:06:10;28.30;82.10
27559;DHT22;15002;52.028;5.670;2022-08-21T10:08:40;28.50;80.30
27559;DHT22;15002;52.028;5.670;2022-08-21T10:11:13;28.30;81.50
27559;DHT22;15002;52.028;5.670;2022-08-21T10:16:45;28.10;80.30
27559;DHT22;15002;52.028;5.670;2022-08-21T10:19:47;28.10;79.60
27559;DHT22;15002;52.028;5.670;2022-08-21T10:25:05;27.90;82.10
27559;DHT22;15002;52.028;5.670;2022-08-21T10:27:43;27.90;80.50
27559;DHT22;15002;52.028;5.670;2022-08-21T10:30:16;27.90;81.50
27559;DHT22;15002;52.028;5.670;2022-08-21T10:33:31;28.00;82.50
27559;DHT22;15002;52.028;5.670;2022-08-21T10:39:17;28.10;79.80
27559;DHT22;15002;52.028;5.670;2022-08-21T10:44:49;28.20;78.60
27559;DHT22;15002;52.028;5.670;2022-08-21T10:47:34;28.20;79.40
27559;DHT22;15002;52.028;5.670;2022-08-21T10:55:56;28.20;80.20
27559;DHT22;15002;52.028;5.670;2022-08-21T10:58:37;28.30;80.30
27559;DHT22;15002;52.028;5.670;2022-08-21T11:01:40;28.70;79.10
27559;DHT22;15002;52.028;5.670;2022-08-21T11:06:38;28.40;80.20
27559;DHT22;15002;52.028;5.670;2022-08-21T11:09:15;28.40;80.40
27559;DHT22;15002;52.028;5.670;2022-08-21T11:14:47;28.30;76.50
27559;DHT22;15002;52.028;5.670;2022-08-21T11:17:18;28.20;77.90
27559;DHT22;15002;52.028;5.670;2022-08-21T11:19:53;28.30;79.40
27559;DHT22;15002;52.028;5.670;2022-08-21T11:22:33;28.40;77.90
27559;DHT22;15002;52.028;5.670;2022-08-21T11:25:07;28.20;78.80
27559;DHT22;15002;52.028;5.670;2022-08-21T11:27:51;28.50;78.90
27559;DHT22;15002;52.028;5.670;2022-08-21T11:30:18;28.30;79.20
27559;DHT22;15002;52.028;5.670;2022-08-21T11:35:41;27.90;79.50
27559;DHT22;15002;52.028;5.670;2022-08-21T11:41:00;27.80;79.80
27559;DHT22;15002;52.028;5.670;2022-08-21T11:43:43;27.80;78.30
27559;DHT22;15002;52.028;5.670;2022-08-21T11:49:02;28.00;77.70
27559;DHT22;15002;52.028;5.670;2022-08-21T11:54:59;28.20;76.70
27559;DHT22;15002;52.028;5.670;2022-08-21T11:57:43;28.10;75.70
27559;DHT22;15002;52.028;5.670;2022-08-21T12:00:26;28.10;76.60
27559;DHT22;15002;52.028;5.670;2022-08-21T12:02:57;27.90;76.50
27559;DHT22;15002;52.028;5.670;2022-08-21T12:05:27;27.90;78.60
27559;DHT22;15002;52.028;5.670;2022-08-21T12:08:05;27.90;76.90
27559;DHT22;15002;52.028;5.670;2022-08-21T12:10:35;28.00;77.60
27559;DHT22;15002;52.028;5.670;2022-08-21T12:13:21;28.50;77.20
27559;DHT22;15002;52.028;5.670;2022-08-21T12:15:47;28.40;76.80
27559;DHT22;15002;52.028;5.670;2022-08-21T12:18:42;28.60;73.30
27559;DHT22;15002;52.028;5.670;2022-08-21T12:21:23;28.60;73.90
27559;DHT22;15002;52.028;5.670;2022-08-21T12:26:57;28.60;74.60
27559;DHT22;15002;52.028;5.670;2022-08-21T12:34:42;28.30;75.20
27559;DHT22;15002;52.028;5.670;2022-08-21T12:39:59;28.80;73.20
27559;DHT22;15002;52.028;5.670;2022-08-21T12:42:40;28.90;73.40
27559;DHT22;15002;52.028;5.670;2022-08-21T12:45:20;28.70;73.10
27559;DHT22;15002;52.028;5.670;2022-08-21T12:48:06;28.90;73.60
27559;DHT22;15002;52.028;5.670;2022-08-21T12:50:45;28.70;73.10
27559;DHT22;15002;52.028;5.670;2022-08-21T12:53:34;28.80;72.50
27559;DHT22;15002;52.028;5.670;2022-08-21T12:56:08;28.40;73.10
27559;DHT22;15002;52.028;5.670;2022-08-21T12:58:34;28.70;72.80
27559;DHT22;15002;52.028;5.670;2022-08-21T13:03:29;28.70;73.60
27559;DHT22;15002;52.028;5.670;2022-08-21T13:05:55;29.00;73.10
27559;DHT22;15002;52.028;5.670;2022-08-21T13:08:23;28.60;73.00
27559;DHT22;15002;52.028;5.670;2022-08-21T13:10:58;28.40;73.80
27559;DHT22;15002;52.028;5.670;2022-08-21T13:13:26;28.90;72.80
27559;DHT22;15002;52.028;5.670;2022-08-21T13:16:04;28.60;71.70
27559;DHT22;15002;52.028;5.670;2022-08-21T13:18:40;28.40;72.40
27559;DHT22;15002;52.028;5.670;2022-08-21T13:21:16;28.40;72.30
27559;DHT22;15002;52.028;5.670;2022-08-21T13:23:42;28.40;71.40
27559;DHT22;15002;52.028;5.670;2022-08-21T13:26:20;28.40;72.00
27559;DHT22;15002;52.028;5.670;2022-08-21T13:28:47;28.40;72.90
27559;DHT22;15002;52.028;5.670;2022-08-21T13:31:20;28.40;73.40
27559;DHT22;15002;52.028;5.670;2022-08-21T13:33:48;28.40;72.70
27559;DHT22;15002;52.028;5.670;2022-08-21T13:36:18;28.90;72.30
27559;DHT22;15002;52.028;5.670;2022-08-21T13:38:46;29.10;71.60
27559;DHT22;15002;52.028;5.670;2022-08-21T13:41:30;29.00;67.90
27559;DHT22;15002;52.028;5.670;2022-08-21T13:44:14;28.90;68.30
27559;DHT22;15002;52.028;5.670;2022-08-21T13:46:40;28.80;68.80
27559;DHT22;15002;52.028;5.670;2022-08-21T13:49:07;28.90;68.30
27559;DHT22;15002;52.028;5.670;2022-08-21T13:51:35;28.90;66.70
27559;DHT22;15002;52.028;5.670;2022-08-21T13:54:13;28.80;68.60
27559;DHT22;15002;52.028;5.670;2022-08-21T13:56:45;28.80;68.60
27559;DHT22;15002;52.028;5.670;2022-08-21T13:59:11;28.80;69.40
27559;DHT22;15002;52.028;5.670;2022-08-21T14:02:26;28.90;70.10
27559;DHT22;15002;52.028;5.670;2022-08-21T14:04:54;28.90;69.90
27559;DHT22;15002;52.028;5.670;2022-08-21T14:07:28;28.80;71.40
27559;DHT22;15002;52.028;5.670;2022-08-21T14:09:55;28.90;70.50
27559;DHT22;15002;52.028;5.670;2022-08-21T14:12:32;28.80;70.80
27559;DHT22;15002;52.028;5.670;2022-08-21T14:15:02;28.80;70.60
27559;DHT22;15002;52.028;5.670;2022-08-21T14:17:36;29.10;71.30
27559;DHT22;15002;52.028;5.670;2022-08-21T14:20:05;29.20;70.80
27559;DHT22;15002;52.028;5.670;2022-08-21T14:22:38;29.30;68.70
27559;DHT22;15002;52.028;5.670;2022-08-21T14:25:06;29.10;70.00
27559;DHT22;15002;52.028;5.670;2022-08-21T14:27:34;29.00;70.20
27559;DHT22;15002;52.028;5.670;2022-08-21T14:32:57;28.90;69.80
27559;DHT22;15002;52.028;5.670;2022-08-21T14:35:23;28.70;70.80
27559;DHT22;15002;52.028;5.670;2022-08-21T14:37:49;28.60;69.90
27559;DHT22;15002;52.028;5.670;2022-08-21T14:40:19;28.50;71.00
27559;DHT22;15002;52.028;5.670;2022-08-21T14:42:46;28.60;70.60
27559;DHT22;15002;52.028;5.670;2022-08-21T14:45:19;28.80;71.30
27559;DHT22;15002;52.028;5.670;2022-08-21T14:47:46;29.20;70.10
27559;DHT22;15002;52.028;5.670;2022-08-21T14:50:13;29.20;70.70
27559;DHT22;15002;52.028;5.670;2022-08-21T14:52:40;29.50;69.50
27559;DHT22;15002;52.028;5.670;2022-08-21T14:55:07;29.60;69.00
27559;DHT22;15002;52.028;5.670;2022-08-21T14:57:36;29.40;69.30
27559;DHT22;15002;52.028;5.670;2022-08-21T15:00:05;29.10;68.90
27559;DHT22;15002;52.028;5.670;2022-08-21T15:02:30;29.00;69.70
27559;DHT22;15002;52.028;5.670;2022-08-21T15:04:56;28.80;70.00
27559;DHT22;15002;52.028;5.670;2022-08-21T15:07:22;28.60;69.30
27559;DHT22;15002;52.028;5.670;2022-08-21T15:09:47;28.60;69.10
27559;DHT22;15002;52.028;5.670;2022-08-21T15:12:14;28.40;69.30
27559;DHT22;15002;52.028;5.670;2022-08-21T15:14:40;28.60;69.70
27559;DHT22;15002;52.028;5.670;2022-08-21T15:17:09;28.80;69.90
27559;DHT22;15002;52.028;5.670;2022-08-21T15:19:36;28.70;69.70
27559;DHT22;15002;52.028;5.670;2022-08-21T15:22:02;28.60;70.80
27559;DHT22;15002;52.028;5.670;2022-08-21T15:24:28;28.70;69.70
27559;DHT22;15002;52.028;5.670;2022-08-21T15:26:55;28.70;70.60
27559;DHT22;15002;52.028;5.670;2022-08-21T15:29:21;28.80;70.60
27559;DHT22;15002;52.028;5.670;2022-08-21T15:31:56;28.80;70.10
27559;DHT22;15002;52.028;5.670;2022-08-21T15:34:23;28.90;70.30
27559;DHT22;15002;52.028;5.670;2022-08-21T15:36:49;28.70;70.40
27559;DHT22;15002;52.028;5.670;2022-08-21T15:39:14;28.80;70.10
27559;DHT22;15002;52.028;5.670;2022-08-21T15:41:40;28.80;69.30
27559;DHT22;15002;52.028;5.670;2022-08-21T15:44:06;28.80;70.30
27559;DHT22;15002;52.028;5.670;2022-08-21T15:46:34;28.70;70.60
27559;DHT22;15002;52.028;5.670;2022-08-21T15:49:00;28.60;71.00
27559;DHT22;15002;52.028;5.670;2022-08-21T15:51:26;28.80;70.90
27559;DHT22;15002;52.028;5.670;2022-08-21T15:53:51;28.90;70.00
27559;DHT22;15002;52.028;5.670;2022-08-21T15:56:25;29.00;70.00
27559;DHT22;15002;52.028;5.670;2022-08-21T15:58:57;28.80;70.60
27559;DHT22;15002;52.028;5.670;2022-08-21T16:01:24;28.70;71.00
27559;DHT22;15002;52.028;5.670;2022-08-21T16:03:52;28.90;70.60
27559;DHT22;15002;52.028;5.670;2022-08-21T16:06:18;29.00;70.50
27559;DHT22;15002;52.028;5.670;2022-08-21T16:08:44;28.80;70.30
27559;DHT22;15002;52.028;5.670;2022-08-21T16:11:11;28.60;71.30
27559;DHT22;15002;52.028;5.670;2022-08-21T16:13:41;28.60;71.00
27559;DHT22;15002;52.028;5.670;2022-08-21T16:16:09;28.50;71.40
27559;DHT22;15002;52.028;5.670;2022-08-21T16:18:36;28.60;71.50
27559;DHT22;15002;52.028;5.670;2022-08-21T16:21:02;28.60;70.90
27559;DHT22;15002;52.028;5.670;2022-08-21T16:23:28;28.80;70.20
27559;DHT22;15002;52.028;5.670;2022-08-21T16:25:53;28.70;70.70
27559;DHT22;15002;52.028;5.670;2022-08-21T16:28:20;28.90;70.00
27559;DHT22;15002;52.028;5.670;2022-08-21T16:30:49;28.70;70.50
27559;DHT22;15002;52.028;5.670;2022-08-21T16:35:59;28.30;71.00
27559;DHT22;15002;52.028;5.670;2022-08-21T16:38:26;28.10;71.50
27559;DHT22;15002;52.028;5.670;2022-08-21T16:40:53;28.40;71.20
27559;DHT22;15002;52.028;5.670;2022-08-21T16:43:22;28.80;70.60
27559;DHT22;15002;52.028;5.670;2022-08-21T16:45:49;28.60;70.50
27559;DHT22;15002;52.028;5.670;2022-08-21T16:48:15;28.60;71.00
27559;DHT22;15002;52.028;5.670;2022-08-21T16:50:40;28.30;71.50
27559;DHT22;15002;52.028;5.670;2022-08-21T16:53:06;28.30;72.20